Time;durP1;ratioP1;P1;durP2;ratioP2;P2;SDS_P1;SDS_P2;PMS_P1;PMS_P2;Temp;Humidity;BMP_temperature;BMP_pressure;BME280_temperature;BME280_humidity;BME280_pressure;Samples;Min_cycle;Max_cycle;Signal;HPM_P1;HPM_P2
2022/01/14 00:02:11;;;;;;;23.05;12.02;;;5.90;96.70;;;;;;4918553;29;20043;-72
2022/01/14 00:04:40;;;;;;;23.85;11.50;;;5.90;96.70;;;;;;4924763;29;20581;-72
2022/01/14 00:07:08;;;;;;;21.35;10.95;;;5.80;96.70;;;;;;4920802;29;20050;-72
2022/01/14 00:09:38;;;;;;;19.20;10.25;;;5.80;96.70;;;;;;4898579;29;20138;-72
2022/01/14 00:12:15;;;;;;;18.48;8.85;;;5.60;96.70;;;;;;4918219;29;20043;-72
2022/01/14 00:14:56;;;;;;;;;;;5.60;96.70;;;;;;4917468;29;20046;-72
2022/01/14 00:17:25;;;;;;;14.32;7.10;;;5.50;96.70;;;;;;4912861;29;20452;-72
2022/01/14 00:19:53;;;;;;;13.07;6.43;;;5.50;96.70;;;;;;4914173;29;20060;-71
2022/01/14 00:22:23;;;;;;;11.13;5.68;;;5.50;96.70;;;;;;4901673;29;20102;-71
2022/01/14 00:33:08;;;;;;;9.90;5.10;;;5.50;96.70;;;;;;4909528;29;20040;-72
2022/01/14 00:35:41;;;;;;;7.65;5.07;;;5.40;96.70;;;;;;4899490;29;20131;-71
2022/01/14 00:38:10;;;;;;;9.13;5.43;;;5.40;96.70;;;;;;4902581;29;20122;-72
2022/01/14 00:40:38;;;;;;;12.38;5.45;;;5.30;96.70;;;;;;4916149;29;20565;-72
2022/01/14 00:43:07;;;;;;;15.40;7.63;;;5.40;96.70;;;;;;4919160;29;20051;-72
2022/01/14 00:45:36;;;;;;;16.48;7.78;;;5.40;96.70;;;;;;4895770;29;20056;-72
2022/01/14 00:48:05;;;;;;;19.17;9.00;;;5.30;96.70;;;;;;4902619;29;20290;-71
2022/01/14 00:50:34;;;;;;;21.02;9.70;;;5.20;96.70;;;;;;4917229;29;20056;-72
2022/01/14 00:53:03;;;;;;;24.35;9.25;;;5.20;96.70;;;;;;4901596;29;20518;-71
2022/01/14 00:55:45;;;;;;;23.38;9.85;;;5.20;96.70;;;;;;4933281;29;20498;-72
2022/01/14 01:01:02;;;;;;;21.60;9.50;;;5.10;96.70;;;;;;4897071;29;20134;-71
2022/01/14 01:03:32;;;;;;;17.35;8.27;;;5.00;96.70;;;;;;4913160;29;20131;-71
2022/01/14 01:06:01;;;;;;;14.20;7.65;;;5.10;96.70;;;;;;4901978;29;20047;-72
2022/01/14 01:08:32;;;;;;;16.83;8.05;;;5.00;96.70;;;;;;4899409;29;20044;-73
2022/01/14 01:11:03;;;;;;;16.55;8.23;;;5.00;96.70;;;;;;4895555;29;20044;-73
2022/01/14 01:13:35;;;;;;;21.55;10.07;;;5.00;96.70;;;;;;4912583;29;20676;-73
2022/01/14 01:16:05;;;;;;;16.15;7.82;;;4.90;96.70;;;;;;4902281;29;20494;-73
2022/01/14 01:18:34;;;;;;;16.08;7.82;;;5.00;96.70;;;;;;4895610;29;20047;-73
2022/01/14 01:21:02;;;;;;;14.20;6.05;;;5.00;96.70;;;;;;4899157;29;20040;-73
2022/01/14 01:23:31;;;;;;;11.02;6.68;;;4.70;96.70;;;;;;4910225;29;20127;-73
2022/01/14 01:26:21;;;;;;;9.88;5.60;;;4.70;96.70;;;;;;4897926;29;20486;-73
2022/01/14 01:31:36;;;;;;;10.75;5.43;;;4.80;96.70;;;;;;4911779;29;20047;-72
2022/01/14 01:34:06;;;;;;;12.38;5.72;;;4.90;96.70;;;;;;4895213;29;20048;-73
2022/01/14 01:36:34;;;;;;;8.55;4.90;;;4.90;96.70;;;;;;4901638;29;20112;-73
2022/01/14 01:39:05;;;;;;;8.73;5.22;;;4.90;96.70;;;;;;4899257;29;20154;-73
2022/01/14 01:41:36;;;;;;;7.60;4.70;;;4.90;96.70;;;;;;4913159;29;20413;-72
2022/01/14 01:44:08;;;;;;;6.90;4.40;;;4.80;96.70;;;;;;4893996;29;20044;-73
2022/01/14 01:46:40;;;;;;;7.55;4.07;;;4.90;96.70;;;;;;4914663;29;20123;-73
2022/01/14 01:49:10;;;;;;;7.85;4.50;;;4.90;96.70;;;;;;4904866;29;20056;-73
2022/01/14 01:51:39;;;;;;;6.65;4.53;;;4.80;96.70;;;;;;4898142;29;20459;-73
2022/01/14 01:54:07;;;;;;;6.78;4.18;;;4.80;96.70;;;;;;4895375;29;20076;-73
2022/01/14 01:56:36;;;;;;;6.10;3.97;;;4.80;96.70;;;;;;4899970;29;20048;-73
2022/01/14 01:59:05;;;;;;;9.02;5.13;;;4.80;96.70;;;;;;4919138;29;20810;-73
2022/01/14 02:01:34;;;;;;;15.55;6.10;;;4.70;96.70;;;;;;4887670;29;20155;-73
2022/01/14 02:04:04;;;;;;;10.05;5.40;;;4.60;96.70;;;;;;4918147;29;20735;-73
2022/01/14 02:06:32;;;;;;;9.48;4.97;;;4.60;96.70;;;;;;4921361;29;20130;-72
2022/01/14 02:09:01;;;;;;;9.15;4.93;;;4.60;96.70;;;;;;4887701;29;20494;-73
2022/01/14 02:11:29;;;;;;;7.47;4.70;;;4.50;96.70;;;;;;4906500;29;20111;-73
2022/01/14 02:14:00;;;;;;;11.05;5.22;;;4.60;96.70;;;;;;4913719;29;20067;-72
2022/01/14 02:19:16;;;;;;;10.88;5.65;;;4.60;96.70;;;;;;4918116;29;20521;-72
2022/01/14 02:27:09;;;;;;;8.35;5.28;;;4.50;96.70;;;;;;4918968;29;20127;-72
2022/01/14 02:29:37;;;;;;;6.30;3.92;;;4.40;96.70;;;;;;4918858;29;20044;-71
2022/01/14 02:32:06;;;;;;;7.68;4.20;;;4.50;96.70;;;;;;4917839;29;20036;-72
2022/01/14 02:34:36;;;;;;;6.88;4.43;;;4.60;96.70;;;;;;4915940;29;20050;-72
2022/01/14 02:37:07;;;;;;;6.55;3.85;;;4.60;96.70;;;;;;4899510;29;20422;-72
2022/01/14 02:39:35;;;;;;;9.15;4.43;;;4.50;96.70;;;;;;4917796;29;20046;-71
2022/01/14 02:42:04;;;;;;;6.82;4.18;;;4.50;96.70;;;;;;4915939;29;20063;-71
2022/01/14 02:44:33;;;;;;;9.65;4.20;;;4.40;96.70;;;;;;4921782;29;20052;-72
2022/01/14 02:47:05;;;;;;;7.32;3.53;;;4.30;96.70;;;;;;4912061;29;20479;-72
2022/01/14 02:49:36;;;;;;;5.97;3.20;;;4.30;96.70;;;;;;4918395;29;20053;-72
2022/01/14 02:52:08;;;;;;;8.93;3.78;;;4.20;96.70;;;;;;4904440;29;20491;-72
2022/01/14 02:54:52;;;;;;;6.57;3.80;;;4.40;96.70;;;;;;4921392;29;20048;-72
2022/01/14 02:57:21;;;;;;;7.22;4.40;;;4.50;96.70;;;;;;4901928;29;20055;-72
2022/01/14 02:59:49;;;;;;;8.73;4.45;;;4.50;96.70;;;;;;4913905;29;20044;-72
2022/01/14 03:02:18;;;;;;;7.13;3.83;;;4.60;96.70;;;;;;4919437;29;20048;-72
2022/01/14 03:04:47;;;;;;;7.35;4.43;;;4.60;96.70;;;;;;4918490;29;20044;-72
2022/01/14 03:07:17;;;;;;;11.25;5.68;;;4.50;96.70;;;;;;4918698;29;20059;-71
2022/01/14 03:09:45;;;;;;;13.02;6.50;;;4.50;96.70;;;;;;4917875;29;20105;-72
2022/01/14 03:12:14;;;;;;;10.85;5.78;;;4.50;96.70;;;;;;4899742;29;20048;-72
2022/01/14 03:14:42;;;;;;;6.40;4.07;;;4.40;96.70;;;;;;4918395;29;20118;-72
2022/01/14 03:17:10;;;;;;;5.10;3.70;;;4.30;96.70;;;;;;4887423;29;20509;-71
2022/01/14 03:19:39;;;;;;;6.22;3.78;;;4.20;96.70;;;;;;4917675;29;20310;-72
2022/01/14 03:22:18;;;;;;;6.32;2.97;;;4.20;96.70;;;;;;4901938;29;20424;-72
2022/01/14 03:27:16;;;;;;;4.30;3.03;;;4.30;96.70;;;;;;4920794;29;20032;-71
2022/01/14 03:29:44;;;;;;;4.28;2.63;;;4.30;96.70;;;;;;4913189;29;20048;-72
2022/01/14 03:32:12;;;;;;;5.65;2.92;;;4.20;96.70;;;;;;4884785;29;20092;-72
2022/01/14 03:34:40;;;;;;;4.40;2.70;;;4.20;96.70;;;;;;4898424;29;20103;-72
2022/01/14 03:37:08;;;;;;;5.28;3.13;;;4.20;96.70;;;;;;4907712;29;20095;-72
2022/01/14 03:39:36;;;;;;;3.70;3.00;;;4.10;96.70;;;;;;4923959;29;20541;-71
2022/01/14 03:42:07;;;;;;;5.40;3.38;;;4.10;96.70;;;;;;4900296;29;20048;-72
2022/01/14 03:44:35;;;;;;;6.10;3.92;;;4.20;96.70;;;;;;4899390;29;20095;-72
2022/01/14 03:47:03;;;;;;;6.00;3.58;;;4.00;96.70;;;;;;4902910;29;20506;-72
2022/01/14 03:49:31;;;;;;;4.05;2.90;;;3.90;96.70;;;;;;4914358;29;20048;-72
2022/01/14 03:51:59;;;;;;;5.13;3.00;;;4.00;96.70;;;;;;4883080;29;20678;-72
2022/01/14 03:54:27;;;;;;;4.03;2.33;;;4.00;96.70;;;;;;4922998;29;20032;-72
2022/01/14 03:56:56;;;;;;;5.10;2.65;;;4.00;96.70;;;;;;4893535;29;20044;-73
2022/01/14 03:59:25;;;;;;;4.45;2.92;;;3.90;96.70;;;;;;4905683;29;20040;-72
2022/01/14 04:01:53;;;;;;;6.03;2.90;;;3.80;96.70;;;;;;4917382;29;20036;-72
2022/01/14 04:04:22;;;;;;;4.65;2.60;;;3.90;96.70;;;;;;4910307;29;20051;-73
2022/01/14 04:06:49;;;;;;;4.13;2.50;;;3.80;96.70;;;;;;4899923;29;20074;-72
2022/01/14 04:09:17;;;;;;;6.30;2.85;;;3.60;96.70;;;;;;4903479;29;20044;-72
2022/01/14 04:11:45;;;;;;;5.07;2.75;;;3.50;96.70;;;;;;4895779;29;20068;-72
2022/01/14 04:16:57;;;;;;;6.82;3.15;;;3.80;96.70;;;;;;4915989;29;20071;-72
2022/01/14 04:19:26;;;;;;;5.32;3.30;;;3.70;96.70;;;;;;4885184;29;20513;-72
2022/01/14 04:21:54;;;;;;;6.70;3.45;;;3.70;96.70;;;;;;4896584;29;20107;-72
2022/01/14 04:24:22;;;;;;;6.03;3.38;;;3.90;96.70;;;;;;4891335;29;20047;-72
2022/01/14 04:26:50;;;;;;;6.00;3.63;;;3.90;96.70;;;;;;4879519;29;20082;-72
2022/01/14 04:29:18;;;;;;;5.75;3.25;;;3.70;96.70;;;;;;4901349;29;20047;-72
2022/01/14 04:31:46;;;;;;;5.57;2.92;;;3.70;96.70;;;;;;4913567;29;20040;-72
2022/01/14 04:34:16;;;;;;;5.97;3.08;;;3.70;96.70;;;;;;4921176;29;20039;-73
2022/01/14 04:36:44;;;;;;;6.07;3.13;;;3.70;96.70;;;;;;4898265;29;20050;-72
2022/01/14 04:39:12;;;;;;;4.30;2.55;;;3.80;96.70;;;;;;4899847;29;20058;-72
2022/01/14 04:41:39;;;;;;;3.88;2.70;;;3.80;96.70;;;;;;4918103;29;20496;-72
2022/01/14 04:44:07;;;;;;;4.20;2.67;;;3.80;96.70;;;;;;4883878;29;20073;-72
2022/01/14 04:49:09;;;;;;;4.35;2.83;;;3.50;96.70;;;;;;4914635;29;20107;-72
2022/01/14 04:51:39;;;;;;;4.43;2.40;;;3.40;96.70;;;;;;4879571;29;20067;-72
2022/01/14 04:54:07;;;;;;;5.60;2.90;;;3.30;96.70;;;;;;4895321;29;20075;-72
2022/01/14 04:56:35;;;;;;;5.97;2.85;;;3.40;96.70;;;;;;4916233;29;20086;-72
2022/01/14 04:59:02;;;;;;;5.63;3.72;;;3.50;96.70;;;;;;4901061;29;20220;-72
2022/01/14 05:01:32;;;;;;;6.53;3.42;;;3.40;96.70;;;;;;4894467;29;20091;-72
2022/01/14 05:04:00;;;;;;;5.30;3.00;;;3.40;96.70;;;;;;4883450;29;20051;-72
2022/01/14 05:06:29;;;;;;;5.47;3.17;;;3.30;96.70;;;;;;4898671;29;20040;-72
2022/01/14 05:08:59;;;;;;;5.03;2.58;;;3.30;96.70;;;;;;4889334;29;20569;-72
2022/01/14 05:11:38;;;;;;;5.90;2.85;;;3.50;96.70;;;;;;4904259;29;20099;-72
2022/01/14 05:14:06;;;;;;;5.68;2.85;;;3.40;96.70;;;;;;4894898;29;20183;-72
2022/01/14 05:16:35;;;;;;;4.70;2.55;;;3.30;96.70;;;;;;4914372;29;20138;-72
2022/01/14 05:19:03;;;;;;;5.13;3.30;;;3.30;96.70;;;;;;4914140;29;20048;-72
2022/01/14 05:21:31;;;;;;;3.97;2.28;;;3.40;96.70;;;;;;4914124;29;20498;-72
2022/01/14 05:24:00;;;;;;;3.70;2.30;;;3.40;96.70;;;;;;4899655;29;20051;-72
2022/01/14 05:26:28;;;;;;;5.35;2.70;;;3.40;96.70;;;;;;4890488;29;20150;-72
2022/01/14 05:28:56;;;;;;;3.95;2.67;;;3.40;96.70;;;;;;4900974;29;20039;-72
2022/01/14 05:31:43;;;;;;;6.43;3.10;;;3.40;96.70;;;;;;4917117;29;20040;-72
2022/01/14 05:34:11;;;;;;;6.05;3.08;;;3.40;96.70;;;;;;4903638;29;20046;-73
2022/01/14 05:36:39;;;;;;;4.72;3.22;;;3.20;96.70;;;;;;4918374;29;20044;-73
2022/01/14 05:39:09;;;;;;;6.57;3.50;;;3.20;96.70;;;;;;4902352;29;20044;-72
2022/01/14 05:41:37;;;;;;;7.25;3.20;;;3.30;96.70;;;;;;4920806;29;20051;-72
2022/01/14 05:44:05;;;;;;;5.55;3.00;;;3.40;96.70;;;;;;4915025;29;20490;-72
2022/01/14 05:46:33;;;;;;;7.10;3.22;;;3.30;96.70;;;;;;4886423;29;20532;-71
2022/01/14 05:49:01;;;;;;;5.45;3.40;;;3.30;96.70;;;;;;4919399;29;20534;-71
2022/01/14 05:51:29;;;;;;;5.55;2.88;;;3.30;96.70;;;;;;4904705;29;20127;-71
2022/01/14 05:53:57;;;;;;;5.78;3.25;;;3.30;96.70;;;;;;4900663;29;20592;-72
2022/01/14 05:56:27;;;;;;;7.40;3.85;;;3.40;96.70;;;;;;4903294;29;20048;-71
2022/01/14 05:58:55;;;;;;;5.35;3.42;;;3.30;96.70;;;;;;4912755;29;20044;-71
2022/01/14 06:01:23;;;;;;;5.43;3.70;;;3.20;96.70;;;;;;4918690;29;20122;-72
2022/01/14 06:03:50;;;;;;;6.22;3.38;;;3.10;96.70;;;;;;4900121;29;20056;-71
2022/01/14 06:06:18;;;;;;;7.60;3.00;;;3.30;96.70;;;;;;4902310;29;20474;-71
2022/01/14 06:08:49;;;;;;;4.72;3.08;;;3.20;96.70;;;;;;4897115;29;20050;-71
2022/01/14 06:11:17;;;;;;;6.18;3.30;;;3.10;96.70;;;;;;4906606;29;20626;-72
2022/01/14 06:13:46;;;;;;;6.10;3.58;;;3.10;96.70;;;;;;4902918;29;20051;-72
2022/01/14 06:16:15;;;;;;;6.38;3.63;;;3.00;96.70;;;;;;4902256;29;20417;-71
2022/01/14 06:18:43;;;;;;;7.78;3.65;;;3.10;96.70;;;;;;4897646;29;20055;-72
2022/01/14 06:21:12;;;;;;;7.80;3.20;;;3.00;96.70;;;;;;4899134;29;20048;-71
2022/01/14 06:23:40;;;;;;;4.72;2.92;;;3.00;96.70;;;;;;4904281;29;20714;-71
2022/01/14 06:26:22;;;;;;;6.28;4.00;;;3.00;96.70;;;;;;4918731;29;20047;-72
2022/01/14 06:28:51;;;;;;;4.75;2.92;;;3.00;96.70;;;;;;4918238;29;20715;-71
2022/01/14 06:31:20;;;;;;;7.55;3.53;;;3.00;96.70;;;;;;4897779;29;20044;-72
2022/01/14 06:33:48;;;;;;;7.18;3.63;;;3.10;96.70;;;;;;4892933;29;20527;-71
2022/01/14 06:36:16;;;;;;;8.05;3.42;;;3.00;96.70;;;;;;4901447;29;20487;-71
2022/01/14 06:38:44;;;;;;;5.65;3.28;;;3.00;96.70;;;;;;4915901;29;20051;-71
2022/01/14 06:41:13;;;;;;;5.03;3.08;;;2.90;96.70;;;;;;4914516;29;20044;-71
2022/01/14 06:43:41;;;;;;;6.25;3.70;;;2.90;96.70;;;;;;4917848;29;20048;-72
2022/01/14 06:46:10;;;;;;;5.68;3.40;;;2.90;96.70;;;;;;4917918;29;20084;-72
2022/01/14 06:48:38;;;;;;;7.55;3.97;;;3.00;96.70;;;;;;4901210;29;20130;-71
2022/01/14 06:51:12;;;;;;;7.63;4.25;;;3.10;96.70;;;;;;4923151;29;20046;-72
2022/01/14 06:53:45;;;;;;;6.60;3.50;;;3.00;96.70;;;;;;4905892;29;20044;-72
2022/01/14 06:56:14;;;;;;;6.80;3.88;;;3.00;96.70;;;;;;4916537;29;20043;-72
2022/01/14 06:58:43;;;;;;;5.82;3.40;;;3.10;96.70;;;;;;4906508;29;20044;-72
2022/01/14 07:01:13;;;;;;;7.93;3.97;;;3.10;96.70;;;;;;4917152;29;20510;-71
2022/01/14 07:03:42;;;;;;;8.10;3.22;;;3.10;96.70;;;;;;4899692;29;20135;-71
2022/01/14 07:06:10;;;;;;;7.25;4.03;;;3.20;96.70;;;;;;4901799;29;20048;-71
2022/01/14 07:08:38;;;;;;;7.75;3.50;;;3.20;96.70;;;;;;4904535;29;20052;-71
2022/01/14 07:11:06;;;;;;;7.45;3.55;;;3.20;96.70;;;;;;4905734;29;20127;-72
2022/01/14 07:13:34;;;;;;;6.00;3.65;;;3.20;96.70;;;;;;4900122;29;20860;-71
2022/01/14 07:16:04;;;;;;;7.38;3.17;;;3.00;96.70;;;;;;4897445;29;20051;-72
2022/01/14 07:18:34;;;;;;;8.10;3.72;;;3.10;96.70;;;;;;4918729;29;20143;-71
2022/01/14 07:21:02;;;;;;;8.48;3.97;;;3.10;96.70;;;;;;4883562;29;20143;-71
2022/01/14 07:23:30;;;;;;;4.95;3.25;;;3.20;96.70;;;;;;4916685;29;20043;-71
2022/01/14 07:25:58;;;;;;;6.20;3.75;;;3.30;96.70;;;;;;4916108;29;20075;-72
2022/01/14 07:28:26;;;;;;;7.30;3.65;;;3.30;96.70;;;;;;4916053;29;20410;-72
2022/01/14 07:30:54;;;;;;;8.10;4.15;;;3.20;96.70;;;;;;4915076;29;20043;-71
2022/01/14 07:33:22;;;;;;;7.57;4.00;;;3.30;96.70;;;;;;4899491;29;20042;-72
2022/01/14 07:35:52;;;;;;;8.00;4.22;;;3.20;96.70;;;;;;4922043;29;20051;-71
2022/01/14 07:38:20;;;;;;;9.32;4.68;;;3.40;96.70;;;;;;4914142;29;20099;-71
2022/01/14 07:40:48;;;;;;;6.40;4.05;;;3.40;96.70;;;;;;4920004;29;20055;-72
2022/01/14 07:43:18;;;;;;;6.82;3.70;;;3.50;96.70;;;;;;4915689;28;20047;-71
2022/01/14 07:45:47;;;;;;;7.57;3.78;;;3.40;96.70;;;;;;4916260;29;20046;-71
2022/01/14 07:48:15;;;;;;;8.23;3.63;;;3.30;96.70;;;;;;4913532;29;20151;-72
2022/01/14 07:50:43;;;;;;;9.75;3.70;;;3.40;96.70;;;;;;4912444;29;20044;-71
2022/01/14 07:53:13;;;;;;;6.05;3.90;;;3.30;96.70;;;;;;4896980;29;20086;-71
2022/01/14 07:55:41;;;;;;;10.75;3.65;;;3.50;96.70;;;;;;4914695;29;20043;-71
2022/01/14 07:58:10;;;;;;;7.97;4.15;;;3.50;96.70;;;;;;4930604;29;20043;-72
2022/01/14 08:00:39;;;;;;;6.88;3.88;;;3.60;96.70;;;;;;4897682;29;20056;-71
2022/01/14 08:03:07;;;;;;;6.90;4.03;;;3.40;96.70;;;;;;4896973;29;20040;-72
2022/01/14 08:05:36;;;;;;;7.93;3.60;;;3.30;96.70;;;;;;4898102;29;20075;-71
2022/01/14 08:08:07;;;;;;;6.85;3.35;;;3.20;96.70;;;;;;4898649;29;20074;-72
2022/01/14 08:10:37;;;;;;;10.73;4.47;;;3.40;96.70;;;;;;4899895;29;20059;-71
2022/01/14 08:13:05;;;;;;;8.55;4.25;;;3.60;96.70;;;;;;4898614;29;20059;-71
2022/01/14 08:15:33;;;;;;;8.55;4.68;;;3.80;96.70;;;;;;4902580;29;20142;-72
2022/01/14 08:18:02;;;;;;;8.95;5.22;;;3.90;96.70;;;;;;4919068;29;20062;-71
2022/01/14 08:20:30;;;;;;;10.32;4.75;;;4.00;96.70;;;;;;4888261;29;20561;-71
2022/01/14 08:22:59;;;;;;;9.05;5.40;;;3.80;96.70;;;;;;4882733;29;20553;-71
2022/01/14 08:25:27;;;;;;;9.45;4.93;;;3.90;96.70;;;;;;4912915;29;20087;-72
2022/01/14 08:27:57;;;;;;;11.27;5.65;;;3.90;96.70;;;;;;4894196;29;20112;-71
2022/01/14 08:30:25;;;;;;;7.72;5.25;;;3.90;96.70;;;;;;4918601;29;20035;-71
2022/01/14 08:32:53;;;;;;;8.05;5.03;;;4.00;96.70;;;;;;4894828;29;20032;-71
2022/01/14 08:35:22;;;;;;;7.47;4.72;;;4.20;96.70;;;;;;4919396;29;20067;-71
2022/01/14 08:37:50;;;;;;;11.02;5.75;;;4.30;96.70;;;;;;4897128;29;20135;-72
2022/01/14 08:40:18;;;;;;;8.75;6.45;;;4.30;96.70;;;;;;4918180;29;20071;-74
2022/01/14 08:42:52;;;;;;;8.77;5.57;;;4.30;96.70;;;;;;4905094;29;20037;-74
2022/01/14 08:45:23;;;;;;;10.43;5.40;;;4.40;96.70;;;;;;4898465;29;20134;-75
2022/01/14 08:47:52;;;;;;;7.63;4.88;;;4.50;96.70;;;;;;4901654;29;20138;-73
2022/01/14 08:50:21;;;;;;;10.07;5.13;;;4.50;96.70;;;;;;4916638;29;20150;-72
2022/01/14 08:52:49;;;;;;;11.60;5.45;;;4.50;96.70;;;;;;4909162;29;20059;-71
2022/01/14 08:55:18;;;;;;;7.20;4.88;;;4.50;96.70;;;;;;4897046;29;20099;-71
2022/01/14 08:57:47;;;;;;;8.50;4.97;;;4.60;96.70;;;;;;4918712;29;20055;-71
2022/01/14 09:00:17;;;;;;;8.10;4.43;;;4.60;96.70;;;;;;4900624;29;20164;-71
2022/01/14 09:02:51;;;;;;;7.55;4.53;;;4.70;96.70;;;;;;4906140;29;20142;-70
2022/01/14 09:05:20;;;;;;;8.15;4.85;;;4.90;96.70;;;;;;4905401;29;20047;-71
2022/01/14 09:07:50;;;;;;;9.40;4.60;;;5.00;96.70;;;;;;4899661;29;20048;-72
2022/01/14 09:10:19;;;;;;;8.32;4.97;;;5.10;96.70;;;;;;4904597;29;20039;-72
2022/01/14 09:12:48;;;;;;;9.50;5.68;;;5.10;96.70;;;;;;4919304;29;20054;-72
2022/01/14 09:15:17;;;;;;;8.23;5.40;;;5.10;96.70;;;;;;4899980;29;20043;-71
2022/01/14 09:17:45;;;;;;;8.32;5.22;;;5.30;96.70;;;;;;4888873;29;20130;-73
2022/01/14 09:20:16;;;;;;;9.30;5.40;;;5.40;96.70;;;;;;4901637;29;20055;-71
2022/01/14 09:22:48;;;;;;;10.95;6.28;;;5.50;96.70;;;;;;4906042;29;20048;-71
2022/01/14 09:25:18;;;;;;;10.77;6.35;;;5.50;96.70;;;;;;4907678;29;20036;-71
2022/01/14 09:27:48;;;;;;;10.02;6.18;;;5.60;96.70;;;;;;4917267;29;20055;-71
2022/01/14 09:30:17;;;;;;;10.00;6.40;;;5.60;96.70;;;;;;4905247;29;20043;-71
2022/01/14 09:32:45;;;;;;;11.93;7.03;;;5.70;96.70;;;;;;4923622;29;20138;-71
2022/01/14 09:35:16;;;;;;;9.75;6.63;;;5.80;96.70;;;;;;4903126;29;20051;-71
2022/01/14 09:37:45;;;;;;;9.57;6.28;;;5.80;96.70;;;;;;4906291;29;20043;-71
2022/01/14 09:40:16;;;;;;;9.77;6.47;;;6.00;96.70;;;;;;4918162;29;20432;-71
2022/01/14 09:42:49;;;;;;;9.85;5.80;;;6.20;96.70;;;;;;4908165;29;20490;-71
2022/01/14 09:45:18;;;;;;;8.85;5.80;;;6.40;96.70;;;;;;4903905;29;20075;-71
2022/01/14 09:47:48;;;;;;;10.60;6.18;;;6.50;96.70;;;;;;4921370;29;20040;-71
2022/01/14 09:50:18;;;;;;;11.20;5.97;;;6.60;96.70;;;;;;4898129;29;20063;-72
2022/01/14 09:52:49;;;;;;;8.85;5.70;;;6.70;96.70;;;;;;4902155;29;20107;-71
2022/01/14 09:55:19;;;;;;;9.68;4.82;;;6.80;96.70;;;;;;4917730;29;20039;-71
2022/01/14 09:57:48;;;;;;;11.48;5.70;;;6.80;96.70;;;;;;4906740;29;20529;-71
2022/01/14 10:00:16;;;;;;;8.18;4.80;;;7.00;96.70;;;;;;4916863;29;20040;-71
2022/01/14 10:02:46;;;;;;;8.05;4.55;;;7.00;96.70;;;;;;4898504;29;20518;-71
2022/01/14 10:05:34;;;;;;;7.20;4.68;;;7.10;96.70;;;;;;4918437;29;20517;-71
2022/01/14 10:08:16;;;;;;;9.88;5.47;;;7.30;96.70;;;;;;4915234;29;20052;-71
2022/01/14 10:10:46;;;;;;;14.55;7.22;;;7.30;96.70;;;;;;4916163;29;20068;-71
2022/01/14 10:13:16;;;;;;;18.27;9.82;;;7.40;96.70;;;;;;4884536;29;20059;-72
2022/01/14 10:15:45;;;;;;;14.10;8.55;;;7.50;96.70;;;;;;4933250;29;20488;-71
2022/01/14 10:18:17;;;;;;;14.48;8.95;;;7.60;96.70;;;;;;4914631;29;20098;-70
2022/01/14 10:20:48;;;;;;;14.85;8.50;;;7.70;96.70;;;;;;4922057;29;20044;-71
2022/01/14 10:23:16;;;;;;;18.88;10.88;;;7.80;96.70;;;;;;4914688;29;20066;-71
2022/01/14 10:25:56;;;;;;;17.35;11.35;;;7.80;96.70;;;;;;4921075;29;20064;-72
2022/01/14 10:28:24;;;;;;;18.73;10.02;;;7.90;96.70;;;;;;4923420;29;20134;-74
2022/01/14 10:30:53;;;;;;;20.58;11.70;;;8.10;96.70;;;;;;4921649;29;20910;-71
2022/01/14 10:33:26;;;;;;;15.90;8.85;;;8.20;96.70;;;;;;4910857;29;20065;-71
2022/01/14 10:35:56;;;;;;;13.25;8.82;;;8.30;96.70;;;;;;4900537;29;20050;-71
2022/01/14 10:38:26;;;;;;;12.70;7.85;;;8.40;96.70;;;;;;4899991;29;20393;-71
2022/01/14 10:40:58;;;;;;;11.32;7.55;;;8.40;96.70;;;;;;4918693;29;20056;-71
2022/01/14 10:43:32;;;;;;;10.98;7.57;;;8.50;96.70;;;;;;4920596;29;20047;-71
2022/01/14 10:46:05;;;;;;;9.95;6.60;;;8.60;96.70;;;;;;4918525;29;20047;-71
2022/01/14 10:48:35;;;;;;;9.80;6.53;;;8.80;96.70;;;;;;4906712;29;20517;-71
2022/01/14 10:51:06;;;;;;;13.30;8.05;;;8.80;96.70;;;;;;4887412;29;20685;-71
2022/01/14 10:53:35;;;;;;;11.32;7.70;;;8.90;96.70;;;;;;4918809;29;20046;-71
2022/01/14 10:56:05;;;;;;;12.65;7.90;;;9.00;96.70;;;;;;4920998;29;20044;-72
2022/01/14 10:58:35;;;;;;;10.65;7.60;;;9.10;96.70;;;;;;4902052;29;20498;-71
2022/01/14 11:01:06;;;;;;;11.15;7.13;;;9.10;96.70;;;;;;4896430;29;20043;-71
2022/01/14 11:03:36;;;;;;;10.10;7.05;;;9.20;96.70;;;;;;4922164;29;20048;-71
2022/01/14 11:06:23;;;;;;;8.43;5.97;;;9.30;96.70;;;;;;4926833;29;20035;-71
2022/01/14 11:08:56;;;;;;;12.90;5.80;;;9.40;96.70;;;;;;4893194;29;20055;-71
2022/01/14 11:11:25;;;;;;;9.05;5.30;;;9.50;96.50;;;;;;4920376;29;20043;-73
2022/01/14 11:13:53;;;;;;;6.80;3.60;;;9.50;95.60;;;;;;4906241;29;20134;-72
2022/01/14 11:16:21;;;;;;;6.10;3.60;;;9.50;93.70;;;;;;4919346;29;20044;-72
2022/01/14 11:18:50;;;;;;;5.38;3.15;;;9.60;92.60;;;;;;4901540;29;20486;-72
2022/01/14 11:24:12;;;;;;;4.22;2.97;;;9.80;92.90;;;;;;4901172;29;20470;-71
2022/01/14 11:26:43;;;;;;;4.90;2.88;;;9.80;92.40;;;;;;4914585;29;20039;-72
2022/01/14 11:29:13;;;;;;;6.25;3.33;;;9.90;92.60;;;;;;4900848;29;20477;-72
2022/01/14 11:31:43;;;;;;;6.10;3.38;;;10.00;92.60;;;;;;4916770;29;20461;-72
2022/01/14 11:34:32;;;;;;;4.40;3.00;;;10.10;92.80;;;;;;4896189;29;20040;-72
2022/01/14 11:37:02;;;;;;;5.72;3.10;;;10.20;92.20;;;;;;4896907;29;20134;-72
2022/01/14 11:39:34;;;;;;;4.72;2.85;;;10.30;92.00;;;;;;4912798;29;20040;-72
2022/01/14 11:42:04;;;;;;;5.18;2.60;;;10.40;92.20;;;;;;4919659;29;20058;-72
2022/01/14 11:48:00;;;;;;;4.72;2.85;;;10.60;90.30;;;;;;4902527;29;20066;-72
2022/01/14 11:50:46;;;;;;;6.00;3.28;;;10.70;90.20;;;;;;4910261;29;20048;-72
2022/01/14 11:53:33;;;;;;;5.47;3.30;;;10.80;90.10;;;;;;4899710;29;20092;-71
2022/01/14 11:56:03;;;;;;;;;;;10.90;89.30;;;;;;4915508;29;20521;-72
2022/01/14 11:58:35;;;;;;;4.80;2.75;;;10.90;89.30;;;;;;4903304;29;19934;-71
2022/01/14 12:01:04;;;;;;;4.82;2.40;;;11.10;88.30;;;;;;4918788;29;20111;-72
2022/01/14 12:03:32;;;;;;;3.83;2.58;;;11.30;86.80;;;;;;4893555;29;20059;-72
2022/01/14 12:06:05;;;;;;;5.50;2.65;;;11.50;85.90;;;;;;4903087;29;20044;-72
2022/01/14 12:08:34;;;;;;;4.32;2.38;;;11.60;85.60;;;;;;4899382;29;20052;-72
2022/01/14 12:11:24;;;;;;;5.03;2.03;;;11.70;84.20;;;;;;4919384;29;20054;-71
2022/01/14 12:13:58;;;;;;;3.97;2.50;;;11.80;84.40;;;;;;4911903;29;20566;-71
2022/01/14 12:19:10;;;;;;;4.22;2.65;;;12.20;84.00;;;;;;4896092;29;20098;-72
2022/01/14 12:22:03;;;;;;;3.88;2.30;;;12.30;84.10;;;;;;4895469;29;20123;-72
2022/01/14 12:24:52;;;;;;;3.65;2.40;;;12.40;84.50;;;;;;4910705;29;20059;-72
2022/01/14 12:27:28;;;;;;;5.05;2.50;;;12.50;84.90;;;;;;4883882;29;20055;-71
2022/01/14 12:30:10;;;;;;;5.53;3.22;;;12.60;85.30;;;;;;4915602;29;20513;-72
2022/01/14 12:32:41;;;;;;;4.20;3.05;;;12.60;86.20;;;;;;4910727;29;20047;-71
2022/01/14 12:35:14;;;;;;;4.63;3.15;;;12.70;86.90;;;;;;4916550;29;20047;-72
2022/01/14 12:37:46;;;;;;;5.68;3.15;;;12.70;88.00;;;;;;4914623;29;20043;-71
2022/01/14 12:40:18;;;;;;;6.50;4.88;;;12.70;88.40;;;;;;4902913;29;20337;-71
2022/01/14 12:42:52;;;;;;;4.90;3.40;;;12.80;89.10;;;;;;4899107;29;20044;-71
2022/01/14 12:45:51;;;;;;;5.15;3.30;;;12.90;89.30;;;;;;4914311;29;20055;-71
2022/01/14 12:48:40;;;;;;;6.82;3.35;;;12.90;89.20;;;;;;4889048;29;20135;-72
2022/01/14 12:51:14;;;;;;;5.72;3.33;;;13.00;89.10;;;;;;4899130;29;20048;-72
2022/01/14 12:53:57;;;;;;;5.60;3.33;;;12.90;89.00;;;;;;4913938;29;20138;-72
2022/01/14 12:56:27;;;;;;;5.60;3.45;;;12.90;88.90;;;;;;4902362;29;20407;-72
2022/01/14 12:59:05;;;;;;;8.13;3.70;;;13.00;88.10;;;;;;4916750;29;20465;-72
2022/01/14 13:01:36;;;;;;;12.00;6.10;;;13.00;88.00;;;;;;4913591;29;20139;-71
2022/01/14 13:04:08;;;;;;;4.60;3.08;;;13.00;88.00;;;;;;4897844;29;20044;-72
2022/01/14 13:06:47;;;;;;;6.30;3.58;;;13.10;87.70;;;;;;4911772;29;20821;-71
2022/01/14 13:09:19;;;;;;;5.85;4.07;;;13.20;88.00;;;;;;4915688;29;20123;-72
2022/01/14 13:11:51;;;;;;;6.50;3.28;;;13.30;88.00;;;;;;4897270;29;20076;-71
2022/01/14 13:14:26;;;;;;;9.55;3.45;;;13.30;87.20;;;;;;4910840;29;20055;-71
2022/01/14 13:16:56;;;;;;;6.43;3.50;;;13.40;87.00;;;;;;4915738;29;20126;-71
2022/01/14 13:19:27;;;;;;;5.30;3.38;;;13.40;87.10;;;;;;4915082;29;20547;-71
2022/01/14 13:21:56;;;;;;;6.50;4.95;;;13.40;87.40;;;;;;4927419;28;20130;-71
2022/01/14 13:24:28;;;;;;;8.15;5.18;;;13.40;88.20;;;;;;4912277;29;20131;-71
2022/01/14 13:27:01;;;;;;;8.38;5.00;;;13.40;88.70;;;;;;4915972;29;20417;-72
2022/01/14 13:29:43;;;;;;;6.45;4.25;;;13.40;88.60;;;;;;4914270;29;20138;-72
2022/01/14 13:32:14;;;;;;;9.05;5.15;;;13.30;88.30;;;;;;4911716;29;20138;-72
2022/01/14 13:34:52;;;;;;;10.50;4.80;;;13.40;88.60;;;;;;4914124;29;20039;-72
2022/01/14 13:37:22;;;;;;;11.48;7.32;;;13.40;89.00;;;;;;4918103;29;20382;-72
2022/01/14 13:40:07;;;;;;;5.95;4.68;;;13.40;91.10;;;;;;4912374;29;20046;-71
2022/01/14 13:42:37;;;;;;;7.65;4.55;;;13.40;91.30;;;;;;4902900;29;20502;-72
2022/01/14 13:45:17;;;;;;;16.38;10.48;;;13.50;92.10;;;;;;4921490;29;20557;-72
2022/01/14 13:47:55;;;;;;;9.05;5.63;;;13.40;94.40;;;;;;4915703;29;20125;-72
2022/01/14 13:50:29;;;;;;;8.70;4.90;;;13.40;92.50;;;;;;4921420;29;20040;-72